Time;durP1;ratioP1;P1;durP2;ratioP2;P2;SDS_P1;SDS_P2;PMS_P1;PMS_P2;Temp;Humidity;BMP_temperature;BMP_pressure;BME280_temperature;BME280_humidity;BME280_pressure;Samples;Min_cycle;Max_cycle;Signal;HPM_P1;HPM_P2
2023/05/21 00:01:14;;;;;;;6.88;3.58;;;16.10;63.20;;;;;;5077532;28;20522;-66
2023/05/21 00:03:41;;;;;;;3.97;2.58;;;16.10;63.10;;;;;;5094642;28;20075;-66
2023/05/21 00:06:07;;;;;;;5.63;3.17;;;16.10;63.00;;;;;;5094568;28;20036;-66
2023/05/21 00:08:33;;;;;;;5.13;2.65;;;16.10;63.00;;;;;;5129113;27;20036;-66
2023/05/21 00:10:58;;;;;;;3.35;2.60;;;16.10;63.10;;;;;;5115638;27;20036;-66
2023/05/21 00:13:24;;;;;;;4.18;3.13;;;16.10;63.30;;;;;;5086696;28;20039;-66
2023/05/21 00:15:50;;;;;;;4.40;2.97;;;16.10;63.20;;;;;;5128629;27;20032;-66
2023/05/21 00:18:17;;;;;;;3.03;2.05;;;16.10;63.20;;;;;;5121066;27;20094;-66
2023/05/21 00:20:42;;;;;;;4.78;2.90;;;16.10;63.00;;;;;;5091059;28;20072;-66
2023/05/21 00:23:09;;;;;;;5.18;3.10;;;16.10;63.10;;;;;;5094457;28;20079;-66
2023/05/21 00:25:34;;;;;;;5.00;3.10;;;16.10;63.30;;;;;;5128450;27;20036;-66
2023/05/21 00:28:00;;;;;;;5.45;2.97;;;16.10;63.40;;;;;;5123566;27;20064;-66
2023/05/21 00:30:26;;;;;;;4.70;3.55;;;16.10;63.60;;;;;;5092387;28;20135;-66
2023/05/21 00:32:51;;;;;;;6.75;3.65;;;16.10;63.60;;;;;;5094163;28;20483;-67
2023/05/21 00:35:17;;;;;;;5.03;2.60;;;16.10;63.70;;;;;;5060532;28;20063;-66
2023/05/21 00:37:42;;;;;;;10.27;3.53;;;16.00;63.70;;;;;;5093272;28;20032;-66
2023/05/21 00:40:10;;;;;;;5.70;2.42;;;16.00;64.00;;;;;;5127891;27;20080;-66
2023/05/21 00:42:39;;;;;;;4.90;3.05;;;16.00;63.90;;;;;;5077043;28;20040;-66
2023/05/21 00:45:06;;;;;;;3.88;2.67;;;16.00;64.10;;;;;;5076994;28;20476;-66
2023/05/21 00:47:33;;;;;;;4.72;3.05;;;16.00;64.30;;;;;;5110181;27;20044;-66
2023/05/21 00:50:01;;;;;;;4.53;3.00;;;16.00;64.30;;;;;;5073580;28;20480;-66
2023/05/21 00:52:26;;;;;;;6.25;3.42;;;16.00;64.40;;;;;;5084437;28;20160;-66
2023/05/21 00:54:52;;;;;;;5.00;2.63;;;16.00;64.10;;;;;;5093204;28;20040;-66
2023/05/21 00:57:21;;;;;;;6.72;3.30;;;16.00;64.20;;;;;;5075961;28;20036;-66
2023/05/21 00:59:51;;;;;;;4.00;2.50;;;16.00;64.40;;;;;;5126394;27;20036;-66
2023/05/21 01:02:17;;;;;;;4.72;2.90;;;16.00;64.10;;;;;;5127797;27;20040;-66
2023/05/21 01:04:44;;;;;;;4.50;3.13;;;16.00;64.20;;;;;;5123880;27;20104;-66
2023/05/21 01:07:11;;;;;;;4.85;3.17;;;16.10;64.40;;;;;;5127438;27;20044;-66
2023/05/21 01:09:37;;;;;;;4.03;2.90;;;16.10;64.60;;;;;;5110772;27;20399;-67
2023/05/21 01:12:04;;;;;;;4.65;3.10;;;16.00;64.50;;;;;;5078631;28;20039;-66
2023/05/21 01:14:31;;;;;;;5.15;3.53;;;16.10;64.40;;;;;;5090039;28;20115;-66
2023/05/21 01:17:00;;;;;;;4.68;3.20;;;16.00;64.50;;;;;;5107679;27;20101;-66
2023/05/21 01:19:27;;;;;;;4.70;2.78;;;16.00;64.80;;;;;;5074109;28;20482;-66
2023/05/21 01:21:59;;;;;;;4.63;3.42;;;16.00;64.70;;;;;;5098349;28;20040;-66
2023/05/21 01:24:24;;;;;;;7.00;3.53;;;16.10;64.90;;;;;;5106610;28;20037;-66
2023/05/21 01:26:51;;;;;;;4.88;3.28;;;16.00;65.00;;;;;;5089607;28;20052;-66
2023/05/21 01:29:16;;;;;;;5.97;3.38;;;16.00;65.20;;;;;;5091114;28;20051;-66
2023/05/21 01:32:10;;;;;;;4.88;2.92;;;16.00;65.40;;;;;;5076095;28;20036;-67
2023/05/21 01:34:53;;;;;;;5.15;3.55;;;16.00;65.10;;;;;;5092710;28;20048;-67
2023/05/21 01:37:30;;;;;;;6.80;3.83;;;16.00;65.20;;;;;;5106309;28;20041;-67
2023/05/21 01:40:04;;;;;;;6.05;3.08;;;16.00;65.20;;;;;;5110105;28;20056;-67
2023/05/21 01:42:31;;;;;;;6.13;3.45;;;15.90;65.10;;;;;;5126143;27;20032;-67
2023/05/21 01:45:00;;;;;;;4.43;3.42;;;15.90;65.30;;;;;;5107769;27;20032;-67
2023/05/21 01:47:28;;;;;;;7.32;3.70;;;15.90;65.40;;;;;;5079558;28;20047;-67
2023/05/21 01:49:55;;;;;;;4.43;2.95;;;15.90;65.70;;;;;;5055647;28;20089;-66
2023/05/21 01:52:21;;;;;;;7.80;3.38;;;15.90;65.10;;;;;;5112038;27;20040;-66
2023/05/21 01:54:48;;;;;;;6.30;3.42;;;15.90;65.40;;;;;;5075622;28;20051;-66
2023/05/21 01:57:15;;;;;;;5.70;3.72;;;15.90;65.70;;;;;;5115276;27;20040;-66
2023/05/21 01:59:43;;;;;;;6.47;3.53;;;15.90;65.80;;;;;;5093550;28;20145;-66
2023/05/21 02:02:09;;;;;;;6.07;3.90;;;15.80;66.10;;;;;;5124923;27;20040;-66
2023/05/21 02:04:34;;;;;;;5.43;3.95;;;15.80;66.10;;;;;;5126518;27;20122;-66
2023/05/21 02:07:01;;;;;;;5.88;3.50;;;15.80;66.20;;;;;;5075569;28;20121;-66
2023/05/21 02:09:26;;;;;;;6.00;3.88;;;15.80;66.30;;;;;;5075657;28;20071;-66
2023/05/21 02:11:52;;;;;;;5.85;3.63;;;15.80;66.20;;;;;;5092030;28;20125;-66
2023/05/21 02:14:19;;;;;;;5.82;3.05;;;15.80;66.50;;;;;;5075069;28;20072;-67
2023/05/21 02:16:45;;;;;;;5.40;2.88;;;15.80;66.30;;;;;;5122345;27;20036;-67
2023/05/21 02:19:10;;;;;;;4.80;2.90;;;15.80;66.50;;;;;;5109757;27;20743;-66
2023/05/21 02:21:36;;;;;;;4.85;3.70;;;15.80;66.20;;;;;;5071993;28;20098;-66
2023/05/21 02:24:02;;;;;;;5.88;3.38;;;15.80;66.60;;;;;;5093605;28;20491;-66
2023/05/21 02:26:28;;;;;;;6.07;3.63;;;15.80;66.60;;;;;;5074753;28;20032;-66
2023/05/21 02:28:54;;;;;;;6.15;3.50;;;15.80;66.70;;;;;;5075157;28;20126;-66
2023/05/21 02:31:20;;;;;;;5.47;2.97;;;15.80;66.60;;;;;;5075141;28;20042;-67
2023/05/21 02:33:45;;;;;;;5.65;3.70;;;15.80;66.30;;;;;;5126092;27;21752;-66
2023/05/21 02:36:11;;;;;;;5.28;3.90;;;15.80;66.10;;;;;;5091396;28;20132;-66
2023/05/21 02:38:42;;;;;;;4.25;3.28;;;15.70;66.30;;;;;;5125563;27;20047;-66
2023/05/21 02:41:09;;;;;;;5.55;3.42;;;15.70;66.20;;;;;;5075367;28;20116;-67
2023/05/21 02:43:36;;;;;;;4.90;2.92;;;15.70;66.30;;;;;;5091563;28;20047;-66
2023/05/21 02:46:01;;;;;;;6.20;3.22;;;15.70;66.10;;;;;;5125989;27;20442;-66
2023/05/21 02:48:27;;;;;;;4.95;3.45;;;15.70;66.00;;;;;;5092903;28;20044;-66
2023/05/21 02:50:53;;;;;;;4.68;3.53;;;15.70;66.20;;;;;;5124042;27;20043;-66
2023/05/21 02:53:19;;;;;;;5.35;3.40;;;15.60;65.90;;;;;;5115489;27;20040;-66
2023/05/21 02:55:44;;;;;;;4.63;3.65;;;15.70;65.80;;;;;;5125602;27;20399;-66
2023/05/21 02:58:12;;;;;;;4.60;2.70;;;15.60;65.80;;;;;;5091582;28;20079;-66
2023/05/21 03:00:38;;;;;;;4.28;3.50;;;15.60;65.80;;;;;;5115051;28;20044;-66
2023/05/21 03:03:03;;;;;;;6.50;4.03;;;15.60;65.60;;;;;;5082283;28;20398;-66
2023/05/21 03:05:30;;;;;;;9.13;4.32;;;15.70;66.20;;;;;;5092816;28;20036;-66
2023/05/21 03:07:55;;;;;;;5.97;4.03;;;15.60;66.50;;;;;;5074615;28;20041;-66
2023/05/21 03:10:21;;;;;;;5.32;3.22;;;15.60;66.70;;;;;;5091309;28;20051;-66
2023/05/21 03:12:47;;;;;;;7.32;4.40;;;15.60;66.60;;;;;;5124940;28;20040;-66
2023/05/21 03:15:13;;;;;;;6.05;3.67;;;15.60;66.70;;;;;;5074376;28;20059;-66
2023/05/21 03:17:41;;;;;;;4.78;2.97;;;15.60;66.80;;;;;;5090967;28;20044;-66
2023/05/21 03:20:08;;;;;;;6.15;4.18;;;15.50;66.40;;;;;;5123703;28;20119;-67
2023/05/21 03:22:33;;;;;;;4.95;3.35;;;15.50;66.80;;;;;;5115343;27;20040;-66
2023/05/21 03:25:00;;;;;;;7.43;4.35;;;15.50;66.70;;;;;;5075217;28;20070;-67
2023/05/21 03:27:26;;;;;;;5.72;4.25;;;15.50;67.00;;;;;;5083120;28;20048;-66
2023/05/21 03:29:54;;;;;;;5.55;3.15;;;15.50;67.30;;;;;;5096555;28;20040;-66
2023/05/21 03:32:20;;;;;;;7.55;3.95;;;15.50;67.10;;;;;;5095169;28;20479;-66
2023/05/21 03:34:46;;;;;;;4.95;3.63;;;15.50;67.40;;;;;;5095326;28;20040;-66
2023/05/21 03:37:11;;;;;;;5.43;3.25;;;15.50;67.30;;;;;;5094808;28;20042;-66
2023/05/21 03:39:37;;;;;;;6.15;4.38;;;15.40;67.40;;;;;;5078230;28;20078;-66
2023/05/21 03:42:03;;;;;;;5.53;4.22;;;15.40;67.70;;;;;;5077948;28;20032;-66
2023/05/21 03:44:31;;;;;;;4.45;3.40;;;15.40;68.00;;;;;;5129312;27;20040;-66
2023/05/21 03:46:57;;;;;;;6.75;3.83;;;15.40;68.10;;;;;;5116882;27;20381;-66
2023/05/21 03:49:24;;;;;;;5.95;3.92;;;15.40;68.10;;;;;;5077085;28;20039;-66
2023/05/21 03:51:50;;;;;;;9.35;5.00;;;15.30;67.80;;;;;;5128891;27;20055;-66
2023/05/21 03:54:16;;;;;;;5.13;3.88;;;15.30;68.00;;;;;;5077638;28;20036;-66
2023/05/21 03:56:41;;;;;;;4.53;3.45;;;15.30;68.10;;;;;;5061144;28;20048;-66
2023/05/21 03:59:07;;;;;;;6.40;5.10;;;15.30;68.10;;;;;;5095073;28;20036;-66
2023/05/21 04:01:33;;;;;;;6.80;4.32;;;15.30;68.40;;;;;;5077721;28;20039;-66
2023/05/21 04:03:59;;;;;;;4.43;3.47;;;15.30;68.40;;;;;;5077705;28;20141;-66
2023/05/21 04:06:25;;;;;;;7.53;4.97;;;15.30;68.20;;;;;;5094414;28;20097;-66
2023/05/21 04:08:51;;;;;;;6.28;4.28;;;15.30;68.30;;;;;;5094645;28;20111;-66
2023/05/21 04:11:16;;;;;;;5.78;4.03;;;15.30;68.20;;;;;;5094218;28;20039;-66
2023/05/21 04:13:42;;;;;;;6.25;4.35;;;15.30;68.40;;;;;;5128714;27;20122;-66
2023/05/21 04:16:08;;;;;;;6.18;5.25;;;15.30;68.60;;;;;;5094561;28;20044;-66
2023/05/21 04:18:34;;;;;;;8.43;5.40;;;15.30;68.80;;;;;;5094096;28;20047;-66
2023/05/21 04:21:00;;;;;;;7.53;5.38;;;15.30;69.00;;;;;;5093979;28;20115;-66
2023/05/21 04:23:26;;;;;;;6.00;3.25;;;15.30;69.10;;;;;;5128341;27;20085;-66
2023/05/21 04:25:52;;;;;;;7.20;5.13;;;15.30;68.80;;;;;;5094067;28;20040;-66
2023/05/21 04:28:18;;;;;;;11.23;5.43;;;15.30;69.00;;;;;;5093987;28;20130;-66
2023/05/21 04:30:46;;;;;;;7.43;5.60;;;15.30;69.20;;;;;;5093533;28;20055;-66
2023/05/21 04:33:16;;;;;;;7.15;5.10;;;15.30;69.30;;;;;;5093213;28;20040;-66
2023/05/21 04:35:43;;;;;;;6.90;4.55;;;15.30;69.30;;;;;;5093791;28;20048;-66
2023/05/21 04:38:09;;;;;;;7.85;5.00;;;15.20;69.10;;;;;;5093683;28;20064;-66
2023/05/21 04:40:35;;;;;;;6.82;4.10;;;15.30;69.30;;;;;;5093618;28;20059;-66
2023/05/21 04:43:00;;;;;;;8.55;4.22;;;15.30;69.30;;;;;;5127718;27;20043;-66
2023/05/21 04:45:27;;;;;;;7.22;4.90;;;15.30;69.10;;;;;;5093657;28;20053;-66
2023/05/21 04:47:52;;;;;;;8.23;5.40;;;15.30;69.20;;;;;;5128242;27;20044;-66
2023/05/21 04:50:19;;;;;;;6.07;4.57;;;15.30;69.40;;;;;;5076685;28;20491;-66
2023/05/21 04:52:45;;;;;;;5.50;4.45;;;15.30;69.50;;;;;;5093761;28;20044;-66
2023/05/21 04:55:11;;;;;;;6.25;4.90;;;15.30;69.60;;;;;;5093692;28;20077;-66
2023/05/21 04:57:37;;;;;;;5.80;4.28;;;15.30;69.70;;;;;;5076283;28;20032;-66
2023/05/21 05:00:06;;;;;;;6.95;5.22;;;15.30;69.80;;;;;;5076771;28;20043;-66
2023/05/21 05:02:31;;;;;;;8.80;4.90;;;15.30;69.70;;;;;;5075598;28;20040;-66
2023/05/21 05:04:58;;;;;;;8.98;6.07;;;15.30;69.80;;;;;;5093367;28;20039;-66
2023/05/21 05:07:24;;;;;;;7.53;5.03;;;15.30;70.00;;;;;;5076362;28;20067;-66
2023/05/21 05:09:50;;;;;;;5.30;4.18;;;15.30;70.00;;;;;;5125889;27;20109;-66
2023/05/21 05:12:16;;;;;;;6.80;4.88;;;15.30;69.80;;;;;;5076220;28;20112;-66
2023/05/21 05:14:41;;;;;;;7.43;4.90;;;15.30;69.90;;;;;;5110573;28;20044;-66
2023/05/21 05:17:08;;;;;;;5.95;4.60;;;15.30;69.90;;;;;;5076534;28;20208;-66
2023/05/21 05:19:34;;;;;;;5.68;4.25;;;15.30;69.60;;;;;;5092843;28;20483;-66
2023/05/21 05:22:00;;;;;;;9.05;5.15;;;15.40;69.60;;;;;;5076462;28;20038;-66
2023/05/21 05:24:26;;;;;;;5.28;3.75;;;15.40;69.50;;;;;;5093379;28;20035;-66
2023/05/21 05:26:51;;;;;;;8.23;5.15;;;15.40;69.40;;;;;;5092739;28;20109;-66
2023/05/21 05:29:17;;;;;;;8.90;5.70;;;15.40;69.50;;;;;;5127312;27;20084;-66
2023/05/21 05:31:43;;;;;;;6.32;4.60;;;15.40;69.70;;;;;;5127430;27;20040;-66
2023/05/21 05:34:08;;;;;;;5.57;3.83;;;15.40;69.70;;;;;;5115299;27;20445;-67
2023/05/21 05:36:34;;;;;;;8.05;5.90;;;15.40;69.40;;;;;;5126973;27;20482;-66
2023/05/21 05:39:00;;;;;;;7.43;5.40;;;15.40;69.60;;;;;;5126871;27;20052;-66
2023/05/21 05:41:25;;;;;;;8.52;4.65;;;15.50;69.70;;;;;;5110295;27;20049;-66
2023/05/21 05:43:51;;;;;;;6.15;4.30;;;15.50;69.50;;;;;;5101711;28;20040;-66
2023/05/21 05:46:17;;;;;;;6.97;4.78;;;15.50;69.50;;;;;;5126541;27;20040;-66
2023/05/21 05:48:42;;;;;;;7.55;5.03;;;15.50;69.60;;;;;;5126892;27;20091;-66
2023/05/21 05:51:08;;;;;;;8.07;5.43;;;15.50;69.50;;;;;;5120507;27;20533;-66
2023/05/21 05:53:34;;;;;;;5.40;4.03;;;15.50;69.40;;;;;;5089347;28;20040;-66
2023/05/21 05:55:59;;;;;;;7.85;4.85;;;15.50;69.40;;;;;;5090676;28;20086;-66
2023/05/21 05:58:25;;;;;;;6.72;4.70;;;15.60;69.40;;;;;;5109388;27;20083;-66
2023/05/21 06:00:51;;;;;;;9.10;5.95;;;15.60;69.40;;;;;;5085274;28;20041;-66
2023/05/21 06:03:17;;;;;;;7.43;5.22;;;15.60;69.50;;;;;;5075719;28;20036;-67
2023/05/21 06:05:43;;;;;;;7.93;5.82;;;15.60;69.60;;;;;;5126293;27;20039;-67
2023/05/21 06:08:09;;;;;;;9.60;4.93;;;15.60;69.80;;;;;;5075252;28;20395;-67
2023/05/21 06:10:34;;;;;;;7.20;5.28;;;15.60;69.80;;;;;;5108043;27;20048;-67
2023/05/21 06:13:00;;;;;;;7.93;5.05;;;15.60;69.60;;;;;;5091996;28;20093;-67
2023/05/21 06:15:26;;;;;;;7.47;4.65;;;15.60;69.60;;;;;;5124843;27;20387;-67
2023/05/21 06:17:51;;;;;;;6.03;4.13;;;15.70;69.50;;;;;;5108458;28;20512;-66
2023/05/21 06:20:17;;;;;;;5.55;4.18;;;15.70;69.50;;;;;;5110658;27;20036;-67
2023/05/21 06:22:43;;;;;;;7.35;5.32;;;15.70;69.50;;;;;;5088480;28;20048;-66
2023/05/21 06:25:09;;;;;;;7.03;5.40;;;15.70;69.70;;;;;;5099935;28;20102;-67
2023/05/21 06:27:36;;;;;;;7.75;4.93;;;15.80;69.90;;;;;;5074872;28;20448;-66
2023/05/21 06:30:02;;;;;;;9.27;5.10;;;15.80;70.00;;;;;;5091870;28;20130;-67
2023/05/21 06:32:27;;;;;;;8.18;4.80;;;15.80;70.20;;;;;;5126117;27;20531;-66
2023/05/21 06:34:53;;;;;;;6.38;4.65;;;15.80;70.00;;;;;;5126070;27;20403;-66
2023/05/21 06:37:20;;;;;;;7.85;4.97;;;15.80;69.90;;;;;;5074777;28;20042;-65
2023/05/21 06:39:46;;;;;;;6.63;4.55;;;15.80;69.80;;;;;;5091369;28;20476;-66
2023/05/21 06:42:12;;;;;;;8.20;4.82;;;15.90;69.70;;;;;;5125862;27;20126;-66
2023/05/21 06:44:38;;;;;;;9.82;5.25;;;15.90;69.60;;;;;;5118965;27;20136;-66
2023/05/21 06:47:04;;;;;;;7.57;4.63;;;16.00;69.90;;;;;;5125173;27;20040;-66
2023/05/21 06:49:30;;;;;;;7.35;4.55;;;16.00;69.60;;;;;;5105956;28;20056;-66
2023/05/21 06:51:56;;;;;;;9.30;5.10;;;16.00;69.90;;;;;;5074971;28;20119;-66
2023/05/21 06:54:22;;;;;;;6.28;4.35;;;16.00;69.60;;;;;;5074699;28;20079;-66
2023/05/21 06:56:47;;;;;;;9.52;4.70;;;16.00;69.60;;;;;;5090939;28;20040;-66
2023/05/21 06:59:13;;;;;;;6.97;4.85;;;16.10;69.70;;;;;;5091340;28;20556;-66
2023/05/21 07:01:41;;;;;;;8.32;5.00;;;16.10;69.70;;;;;;5074521;28;20043;-66
2023/05/21 07:04:08;;;;;;;7.40;4.80;;;16.20;69.60;;;;;;5091795;28;20040;-66
2023/05/21 07:06:34;;;;;;;6.38;4.72;;;16.20;69.40;;;;;;5074879;28;20032;-66
2023/05/21 07:09:01;;;;;;;6.10;4.15;;;16.30;69.40;;;;;;5074688;28;20125;-66
2023/05/21 07:11:27;;;;;;;5.97;4.60;;;16.30;69.30;;;;;;5057974;28;20047;-66
2023/05/21 07:13:55;;;;;;;6.55;4.18;;;16.40;69.60;;;;;;5091257;28;20043;-66
2023/05/21 07:16:21;;;;;;;7.60;4.25;;;16.40;69.80;;;;;;5125403;28;20044;-67
2023/05/21 07:18:47;;;;;;;8.80;4.93;;;16.50;69.60;;;;;;5071920;28;20041;-66
2023/05/21 07:21:12;;;;;;;7.30;4.55;;;16.60;69.60;;;;;;5091045;28;20474;-67
2023/05/21 07:23:38;;;;;;;7.80;4.30;;;16.70;69.30;;;;;;5091270;28;20051;-67
2023/05/21 07:26:04;;;;;;;7.25;4.10;;;16.70;69.10;;;;;;5091272;28;20063;-67
2023/05/21 07:28:30;;;;;;;7.30;4.50;;;16.80;68.80;;;;;;5074275;28;20115;-66
2023/05/21 07:30:56;;;;;;;5.82;4.10;;;16.90;68.60;;;;;;5125638;28;20143;-67
2023/05/21 07:33:21;;;;;;;6.60;4.57;;;16.90;68.30;;;;;;5090755;28;20056;-67
2023/05/21 07:35:47;;;;;;;8.57;4.80;;;17.00;68.20;;;;;;5073982;28;20139;-67
2023/05/21 07:38:13;;;;;;;6.95;4.85;;;17.00;68.20;;;;;;5116387;28;20049;-67
2023/05/21 07:40:39;;;;;;;5.97;4.25;;;17.10;68.00;;;;;;5057135;28;20040;-66
2023/05/21 07:43:04;;;;;;;7.03;4.75;;;17.20;67.40;;;;;;5121557;28;20085;-67
2023/05/21 07:45:30;;;;;;;7.10;4.70;;;17.30;67.10;;;;;;5090675;28;20510;-66
2023/05/21 07:47:56;;;;;;;5.78;4.38;;;17.40;66.80;;;;;;5091392;28;20040;-66
2023/05/21 07:50:22;;;;;;;6.65;5.30;;;17.50;66.60;;;;;;5073916;28;20533;-67
2023/05/21 07:52:47;;;;;;;6.35;4.50;;;17.60;66.50;;;;;;5091116;28;20051;-67
2023/05/21 07:55:13;;;;;;;6.43;4.32;;;17.70;66.70;;;;;;5091312;28;20055;-67
2023/05/21 07:57:38;;;;;;;7.40;4.50;;;17.80;66.30;;;;;;5090756;28;20086;-67
2023/05/21 08:00:08;;;;;;;7.10;4.50;;;17.90;65.80;;;;;;5090561;28;20129;-67
2023/05/21 08:02:34;;;;;;;7.18;5.18;;;18.00;65.60;;;;;;5090912;28;20123;-67
2023/05/21 08:05:00;;;;;;;5.05;3.75;;;18.10;65.90;;;;;;5124181;28;20055;-66
2023/05/21 08:07:26;;;;;;;6.47;4.78;;;18.30;65.70;;;;;;5092157;28;20483;-66
2023/05/21 08:09:53;;;;;;;7.95;4.78;;;18.50;64.70;;;;;;5095525;28;20036;-66
2023/05/21 08:12:19;;;;;;;7.82;5.00;;;18.60;63.90;;;;;;5128618;27;20040;-66
2023/05/21 08:14:44;;;;;;;6.40;4.65;;;18.80;64.20;;;;;;5125504;27;20036;-66
2023/05/21 08:17:10;;;;;;;8.05;4.97;;;18.90;63.80;;;;;;5093877;28;20078;-66
2023/05/21 08:19:36;;;;;;;7.03;4.65;;;19.10;62.70;;;;;;5077468;28;20067;-66
2023/05/21 08:22:02;;;;;;;7.55;5.82;;;19.30;62.00;;;;;;5094105;28;20043;-66
2023/05/21 08:24:28;;;;;;;6.78;4.78;;;19.40;62.30;;;;;;5077157;28;20043;-67
2023/05/21 08:26:53;;;;;;;7.97;4.65;;;19.50;61.70;;;;;;5093895;28;20047;-66
2023/05/21 08:29:19;;;;;;;9.18;4.90;;;19.70;60.90;;;;;;5093723;28;20119;-66
2023/05/21 08:31:45;;;;;;;6.57;5.07;;;19.80;60.50;;;;;;5093733;28;20075;-66
2023/05/21 08:34:10;;;;;;;7.95;5.35;;;19.90;60.60;;;;;;5076843;28;20067;-66
2023/05/21 08:36:37;;;;;;;6.47;4.60;;;20.00;60.50;;;;;;5093324;28;20043;-66
2023/05/21 08:39:03;;;;;;;6.60;4.50;;;20.10;59.60;;;;;;5076301;28;20059;-66
2023/05/21 08:41:30;;;;;;;6.20;4.47;;;20.20;59.40;;;;;;5076517;28;20040;-66
2023/05/21 08:43:56;;;;;;;7.28;5.00;;;20.30;59.70;;;;;;5093233;28;20506;-66
2023/05/21 08:46:25;;;;;;;7.28;4.95;;;20.40;59.10;;;;;;5092724;28;20043;-66
2023/05/21 08:48:54;;;;;;;6.82;5.25;;;20.50;59.30;;;;;;5090892;28;20418;-66
2023/05/21 08:51:21;;;;;;;7.13;5.20;;;20.70;58.50;;;;;;5093286;28;20376;-66
2023/05/21 08:53:48;;;;;;;7.03;4.65;;;20.70;58.00;;;;;;5092428;28;20039;-65
2023/05/21 08:56:19;;;;;;;9.32;5.80;;;20.70;58.10;;;;;;5092138;28;20044;-65
2023/05/21 08:58:46;;;;;;;5.70;4.43;;;20.80;57.60;;;;;;5124101;27;20059;-66
2023/05/21 09:01:12;;;;;;;6.72;4.82;;;20.80;57.70;;;;;;5093083;28;20483;-64
2023/05/21 09:03:42;;;;;;;6.72;4.85;;;20.80;57.50;;;;;;5093267;28;20042;-64
2023/05/21 09:06:14;;;;;;;5.63;4.93;;;20.90;57.90;;;;;;5093494;28;20125;-64
2023/05/21 09:08:45;;;;;;;6.30;5.10;;;21.00;58.20;;;;;;5093417;28;20454;-64
2023/05/21 09:11:12;;;;;;;5.85;5.22;;;21.00;57.20;;;;;;5119698;27;20076;-64
2023/05/21 09:13:39;;;;;;;9.65;6.07;;;21.10;57.20;;;;;;5088796;28;20110;-68
2023/05/21 09:16:06;;;;;;;7.30;5.63;;;21.30;57.60;;;;;;5093458;28;20052;-69
2023/05/21 09:18:31;;;;;;;6.30;4.72;;;21.30;57.00;;;;;;5108440;27;20472;-69
2023/05/21 09:21:07;;;;;;;7.15;5.00;;;21.30;57.30;;;;;;5077571;28;20123;-70
2023/05/21 09:23:32;;;;;;;8.75;4.72;;;21.40;56.80;;;;;;5092586;28;20047;-69
2023/05/21 09:25:59;;;;;;;8.63;5.57;;;21.50;56.70;;;;;;5093203;28;20040;-70
2023/05/21 09:28:25;;;;;;;9.13;5.70;;;21.60;56.70;;;;;;5092601;28;20074;-70
2023/05/21 09:30:52;;;;;;;8.50;6.00;;;21.60;56.00;;;;;;5120822;27;20495;-70
2023/05/21 09:33:26;;;;;;;7.90;6.07;;;21.70;55.80;;;;;;5092574;28;20180;-70
2023/05/21 09:35:52;;;;;;;8.23;4.93;;;21.70;56.20;;;;;;5075847;28;20048;-70
2023/05/21 09:38:20;;;;;;;6.22;5.20;;;21.70;56.30;;;;;;5092008;28;20403;-69
2023/05/21 09:40:46;;;;;;;8.15;5.18;;;21.80;55.90;;;;;;5072993;28;20105;-70
2023/05/21 09:43:15;;;;;;;10.45;5.88;;;21.80;55.90;;;;;;5115117;27;20127;-70
2023/05/21 09:45:53;;;;;;;8.07;4.95;;;21.90;55.90;;;;;;5119833;27;20040;-70
2023/05/21 09:48:35;;;;;;;5.68;4.57;;;21.90;55.80;;;;;;5122734;27;20044;-69
2023/05/21 09:51:15;;;;;;;6.63;4.88;;;21.90;55.70;;;;;;5088291;28;20079;-70
2023/05/21 09:53:54;;;;;;;6.65;4.72;;;21.90;55.70;;;;;;5091981;28;20471;-70
2023/05/21 09:56:22;;;;;;;7.25;4.95;;;22.00;55.90;;;;;;5091440;28;20044;-69
2023/05/21 09:58:50;;;;;;;9.05;4.65;;;21.90;55.50;;;;;;5124463;27;20032;-69
2023/05/21 10:01:18;;;;;;;7.40;4.95;;;21.90;55.90;;;;;;5115154;27;20379;-69
2023/05/21 10:03:47;;;;;;;7.13;5.25;;;21.90;56.00;;;;;;5074784;28;20032;-70
2023/05/21 10:06:13;;;;;;;7.30;5.28;;;21.90;55.30;;;;;;5076971;28;20063;-69
2023/05/21 10:08:43;;;;;;;8.15;4.78;;;21.90;55.60;;;;;;5074994;28;20082;-69
2023/05/21 10:11:10;;;;;;;7.78;5.07;;;21.90;56.10;;;;;;5105921;28;20048;-70
2023/05/21 10:13:40;;;;;;;6.85;5.18;;;21.90;56.40;;;;;;5107278;27;20395;-70
2023/05/21 10:16:06;;;;;;;8.13;5.22;;;21.90;55.60;;;;;;5089706;28;20105;-70
2023/05/21 10:18:32;;;;;;;10.65;4.90;;;21.90;55.50;;;;;;5120579;27;20457;-69
2023/05/21 10:21:00;;;;;;;8.90;5.47;;;21.90;55.80;;;;;;5071686;28;20099;-70
2023/05/21 10:23:27;;;;;;;9.27;5.68;;;21.90;56.00;;;;;;5102263;28;20039;-69
2023/05/21 10:25:55;;;;;;;9.15;5.18;;;21.90;55.70;;;;;;5112545;27;20094;-70
2023/05/21 10:28:22;;;;;;;6.88;5.03;;;21.90;55.50;;;;;;5105451;28;20524;-70
2023/05/21 10:30:48;;;;;;;7.10;4.38;;;21.90;55.90;;;;;;5082458;28;20495;-70
2023/05/21 10:33:18;;;;;;;6.40;4.75;;;21.90;56.20;;;;;;5091270;28;20039;-70
2023/05/21 10:35:47;;;;;;;6.07;5.00;;;22.00;56.20;;;;;;5091708;28;20044;-70
2023/05/21 10:38:13;;;;;;;6.47;4.32;;;22.10;56.10;;;;;;5091205;28;20132;-70
2023/05/21 10:40:39;;;;;;;6.30;4.35;;;22.10;55.60;;;;;;5124071;27;20055;-69
2023/05/21 10:43:07;;;;;;;8.80;4.80;;;22.10;55.80;;;;;;5125205;27;20036;-69
2023/05/21 10:45:39;;;;;;;11.18;5.13;;;22.20;56.10;;;;;;5122706;27;20043;-69
2023/05/21 10:48:26;;;;;;;5.65;4.53;;;22.30;55.90;;;;;;5118217;27;20546;-69
2023/05/21 10:51:13;;;;;;;7.65;5.20;;;22.40;55.70;;;;;;5088585;28;20444;-69
2023/05/21 10:54:16;;;;;;;8.55;5.13;;;22.30;55.20;;;;;;5121038;27;20040;-70
2023/05/21 10:57:07;;;;;;;6.00;4.65;;;22.40;54.10;;;;;;5091170;28;20044;-69
2023/05/21 10:59:41;;;;;;;8.32;5.05;;;22.40;54.80;;;;;;5091392;28;20040;-69
2023/05/21 11:02:08;;;;;;;;;;;22.50;55.20;;;;;;5091731;28;20558;-70
2023/05/21 11:04:38;;;;;;;7.13;4.63;;;22.50;55.50;;;;;;5091331;28;19935;-69
2023/05/21 11:07:04;;;;;;;8.40;5.10;;;22.50;54.80;;;;;;5090868;28;20435;-70
2023/05/21 11:09:30;;;;;;;9.30;5.70;;;22.50;54.80;;;;;;5082618;28;20042;-68
2023/05/21 11:12:03;;;;;;;6.72;4.80;;;22.60;54.90;;;;;;5075274;28;20036;-69
2023/05/21 11:14:34;;;;;;;8.77;4.95;;;22.60;55.30;;;;;;5076917;28;20548;-69
2023/05/21 11:17:37;;;;;;;7.45;5.22;;;22.70;55.80;;;;;;5110200;28;20044;-69
2023/05/21 11:20:06;;;;;;;6.13;5.05;;;22.80;55.40;;;;;;5075321;28;20457;-70
2023/05/21 11:22:34;;;;;;;8.02;5.05;;;22.90;54.60;;;;;;5062623;28;20036;-70
2023/05/21 11:25:01;;;;;;;5.68;4.78;;;22.90;55.10;;;;;;5113026;28;20133;-70
2023/05/21 11:27:37;;;;;;;7.68;5.63;;;22.90;54.80;;;;;;5061974;28;20097;-70
2023/05/21 11:30:16;;;;;;;6.63;5.20;;;23.00;54.60;;;;;;5112853;28;20032;-70
2023/05/21 11:33:09;;;;;;;6.32;4.68;;;23.10;55.00;;;;;;5080481;28;20455;-69
2023/05/21 11:36:02;;;;;;;9.05;6.35;;;23.20;54.70;;;;;;5070828;28;20056;-75
2023/05/21 11:38:29;;;;;;;7.22;5.40;;;23.30;53.20;;;;;;5112711;28;20063;-74
2023/05/21 11:41:01;;;;;;;7.60;6.00;;;23.30;53.70;;;;;;5095004;28;20497;-74
2023/05/21 11:43:27;;;;;;;6.57;5.28;;;23.40;53.50;;;;;;5116227;27;20048;-74
2023/05/21 11:45:54;;;;;;;6.78;5.25;;;23.50;53.10;;;;;;5115672;27;20463;-73
2023/05/21 11:48:26;;;;;;;8.50;5.40;;;23.50;53.40;;;;;;5116822;27;20123;-74
2023/05/21 11:50:52;;;;;;;8.65;6.03;;;23.60;53.20;;;;;;5098104;28;20045;-70
2023/05/21 11:53:18;;;;;;;6.78;5.50;;;23.70;53.10;;;;;;5112111;27;20056;-70
2023/05/21 11:55:46;;;;;;;8.68;6.07;;;23.70;52.50;;;;;;5069716;28;20037;-69
2023/05/21 11:58:13;;;;;;;10.25;6.25;;;23.80;52.20;;;;;;5062133;28;20047;-70
2023/05/21 12:00:39;;;;;;;9.23;6.13;;;23.80;52.60;;;;;;5078489;28;20484;-70
2023/05/21 12:03:07;;;;;;;9.18;6.22;;;23.90;52.50;;;;;;5061362;28;20108;-69
2023/05/21 12:05:48;;;;;;;10.10;6.68;;;23.90;52.20;;;;;;5094841;27;20051;-69
2023/05/21 12:08:26;;;;;;;9.10;5.32;;;23.90;52.00;;;;;;5078473;28;20037;-69
2023/05/21 12:10:58;;;;;;;8.70;6.25;;;24.00;52.70;;;;;;5061842;28;20041;-69
2023/05/21 12:13:24;;;;;;;9.77;6.00;;;24.10;52.10;;;;;;5112315;27;20110;-69
2023/05/21 12:15:52;;;;;;;9.35;5.95;;;24.10;52.70;;;;;;5078951;28;20569;-69
2023/05/21 12:18:19;;;;;;;6.78;6.07;;;24.10;52.30;;;;;;5112084;27;20093;-70
2023/05/21 12:20:45;;;;;;;9.10;6.90;;;24.20;52.20;;;;;;5111341;27;20484;-69
2023/05/21 12:23:22;;;;;;;7.88;6.07;;;24.30;51.70;;;;;;5118981;27;20048;-69
2023/05/21 12:25:48;;;;;;;9.13;5.97;;;24.30;51.40;;;;;;5061010;28;20036;-69
2023/05/21 12:28:14;;;;;;;11.75;6.78;;;24.40;51.70;;;;;;5078064;28;20439;-69
2023/05/21 12:30:40;;;;;;;9.30;7.07;;;24.40;52.60;;;;;;5069115;28;20050;-69
2023/05/21 12:33:06;;;;;;;10.52;6.50;;;24.50;51.10;;;;;;5112339;27;20480;-69
2023/05/21 12:35:31;;;;;;;9.45;6.40;;;24.50;51.30;;;;;;5112000;27;20040;-69
2023/05/21 12:38:00;;;;;;;7.55;5.25;;;24.50;51.20;;;;;;5111872;27;20119;-69
2023/05/21 12:40:36;;;;;;;10.52;7.03;;;24.60;51.40;;;;;;5095438;28;20390;-69
2023/05/21 12:43:02;;;;;;;9.05;7.05;;;24.70;50.90;;;;;;5078052;28;20067;-68
2023/05/21 12:45:32;;;;;;;10.55;5.88;;;24.70;50.80;;;;;;5095503;28;20039;-68
2023/05/21 12:48:01;;;;;;;10.15;6.40;;;24.80;50.40;;;;;;5111125;27;20066;-68